Time;durP1;ratioP1;P1;durP2;ratioP2;P2;SDS_P1;SDS_P2;PMS_P1;PMS_P2;Temp;Humidity;BMP_temperature;BMP_pressure;BME280_temperature;BME280_humidity;BME280_pressure;Samples;Min_cycle;Max_cycle;Signal;HPM_P1;HPM_P2
2023/01/03 00:01:13;;;;;;;10.65;8.20;;;;;;;16.25;57.07;98060.63;5112212;28;20538;-25
2023/01/03 00:03:39;;;;;;;9.18;7.38;;;;;;;16.26;56.98;98051.22;5094218;27;20032;-26
2023/01/03 00:06:05;;;;;;;10.93;7.43;;;;;;;16.22;57.30;98054.03;5119475;27;20027;-26
2023/01/03 00:08:30;;;;;;;10.95;7.82;;;;;;;16.28;56.92;98049.63;5132864;27;20151;-26
2023/01/03 00:10:56;;;;;;;10.48;7.53;;;;;;;16.29;57.05;98051.16;5132733;27;20043;-26
2023/01/03 00:13:21;;;;;;;12.32;7.60;;;;;;;16.23;57.21;98046.59;5118472;27;20059;-26
2023/01/03 00:15:46;;;;;;;12.45;7.60;;;;;;;16.30;57.02;98049.19;5112456;27;20020;-26
2023/01/03 00:18:12;;;;;;;11.38;7.10;;;;;;;16.29;56.90;98050.38;5115343;27;20467;-25
2023/01/03 00:20:37;;;;;;;10.55;7.82;;;;;;;16.25;57.08;98049.69;5120997;27;20407;-26
2023/01/03 00:23:03;;;;;;;9.20;6.82;;;;;;;16.21;57.31;98051.72;5114220;28;20492;-26
2023/01/03 00:25:28;;;;;;;9.70;7.57;;;;;;;16.27;57.25;98055.50;5114135;28;20023;-26
2023/01/03 00:27:54;;;;;;;12.18;7.97;;;;;;;16.22;57.30;98048.56;5114027;28;20407;-26
2023/01/03 00:30:21;;;;;;;9.73;7.28;;;;;;;16.23;57.28;98052.84;5120801;27;20027;-26
2023/01/03 00:32:46;;;;;;;10.60;7.72;;;;;;;16.29;57.12;98055.88;5120617;27;20027;-26
2023/01/03 00:35:12;;;;;;;8.70;6.85;;;;;;;16.23;57.22;98046.59;5121004;27;20034;-26
2023/01/03 00:37:38;;;;;;;10.15;7.30;;;;;;;16.22;57.29;98050.53;5120076;27;20023;-26
2023/01/03 00:40:04;;;;;;;9.48;6.95;;;;;;;16.31;57.06;98053.47;5114018;28;20110;-26
2023/01/03 00:43:27;;;;;;;9.95;7.03;;;;;;;16.26;57.24;98057.47;5113830;28;20024;-26
2023/01/03 00:45:14;;;;;;;9.90;6.85;;;;;;;16.24;57.32;98048.91;5113785;28;20036;-26
2023/01/03 00:47:41;;;;;;;11.25;7.60;;;;;;;16.22;57.20;98058.75;5113890;28;20084;-25
2023/01/03 00:50:06;;;;;;;8.63;6.55;;;;;;;16.24;57.35;98050.88;5114062;27;20072;-26
2023/01/03 00:52:32;;;;;;;7.65;6.43;;;;;;;16.24;57.36;98056.34;5113824;28;20023;-26
2023/01/03 00:54:57;;;;;;;8.55;6.55;;;;;;;16.22;57.39;98051.28;5113871;28;20094;-26
2023/01/03 00:57:23;;;;;;;11.00;7.25;;;;;;;16.22;57.52;98064.22;5129632;28;20027;-26
2023/01/03 00:59:48;;;;;;;9.45;7.03;;;;;;;16.21;57.34;98060.69;5134192;28;20068;-26
2023/01/03 01:02:13;;;;;;;8.68;6.70;;;;;;;16.20;57.31;98055.66;5134205;28;20139;-27
2023/01/03 01:04:39;;;;;;;12.98;7.32;;;;;;;16.29;57.05;98053.91;5134098;28;20076;-28
2023/01/03 01:07:06;;;;;;;14.52;7.70;;;;;;;16.26;57.17;98052.00;5099945;28;20085;-26
2023/01/03 01:09:34;;;;;;;14.73;9.10;;;;;;;16.29;57.17;98062.09;5125667;27;20046;-25
2023/01/03 01:11:59;;;;;;;10.95;7.75;;;;;;;16.28;57.13;98057.06;5122207;27;20519;-26
2023/01/03 01:14:27;;;;;;;13.57;7.53;;;;;;;16.30;57.04;98066.41;5099479;28;20039;-26
2023/01/03 01:17:04;;;;;;;12.18;8.00;;;;;;;16.25;57.06;98055.94;5120463;27;20184;-26
2023/01/03 01:19:35;;;;;;;12.38;8.05;;;;;;;16.19;57.23;98049.44;5120069;27;20542;-26
2023/01/03 01:22:01;;;;;;;11.93;7.80;;;;;;;16.21;57.44;98054.47;5132763;27;20028;-26
2023/01/03 01:24:27;;;;;;;12.27;7.68;;;;;;;16.27;57.28;98052.78;5117620;27;20028;-26
2023/01/03 01:26:52;;;;;;;10.77;7.93;;;;;;;16.21;57.36;98059.94;5117478;28;20019;-25
2023/01/03 01:29:19;;;;;;;9.45;7.32;;;;;;;16.21;57.34;98063.44;5117238;28;20020;-26
2023/01/03 01:31:45;;;;;;;12.90;8.00;;;;;;;16.24;56.92;98056.34;5136680;27;20028;-26
2023/01/03 01:34:12;;;;;;;12.65;8.10;;;;;;;16.28;57.08;98049.63;5137962;27;20027;-25
2023/01/03 01:36:40;;;;;;;10.27;7.45;;;;;;;16.24;57.17;98053.63;5131740;27;20103;-26
2023/01/03 01:39:18;;;;;;;14.38;8.15;;;;;;;16.24;57.00;98053.63;5117537;28;20023;-25
2023/01/03 01:44:43;;;;;;;12.50;7.22;;;;;;;16.24;57.25;98059.09;5121096;27;20388;-25
2023/01/03 01:47:34;;;;;;;12.10;7.97;;;;;;;16.24;57.30;98059.88;5117414;28;20031;-26
2023/01/03 01:50:46;;;;;;;13.55;8.32;;;;;;;16.24;57.13;98057.13;5120127;27;20027;-26
2023/01/03 01:53:22;;;;;;;12.68;8.27;;;;;;;16.19;57.28;98060.38;5116654;28;20028;-26
2023/01/03 01:55:53;;;;;;;10.55;8.18;;;;;;;16.22;57.26;98056.78;5117030;28;20023;-26
2023/01/03 01:58:21;;;;;;;9.98;7.88;;;;;;;16.22;57.26;98053.25;5116814;28;20391;-26
2023/01/03 02:00:46;;;;;;;10.63;7.65;;;;;;;16.22;57.18;98061.47;5116976;27;20098;-26
2023/01/03 02:03:12;;;;;;;11.82;7.65;;;;;;;16.23;57.18;98052.84;5116873;28;20106;-26
2023/01/03 02:05:43;;;;;;;11.02;7.97;;;;;;;16.26;57.08;98056.69;5116694;28;20027;-26
2023/01/03 02:08:08;;;;;;;12.80;8.70;;;;;;;16.23;57.19;98049.34;5117030;28;20026;-26
2023/01/03 02:11:20;;;;;;;14.63;9.02;;;;;;;16.23;56.97;98049.34;5116457;28;20044;-25
2023/01/03 02:14:22;;;;;;;14.65;9.40;;;;;;;16.19;57.10;98048.66;5105584;28;20535;-26
2023/01/03 02:17:01;;;;;;;12.40;8.30;;;;;;;16.26;56.96;98040.28;5115143;28;20046;-25
2023/01/03 02:19:39;;;;;;;12.05;8.32;;;;;;;16.21;57.10;98040.78;5113857;27;20417;-26
2023/01/03 02:22:14;;;;;;;16.38;8.30;;;;;;;16.16;57.27;98036.59;5115965;28;20032;-26
2023/01/03 02:25:05;;;;;;;13.32;8.45;;;;;;;16.23;57.09;98041.13;5104542;27;20026;-27
2023/01/03 02:28:07;;;;;;;13.52;8.30;;;;;;;16.22;57.06;98034.88;5116450;28;20031;-25
2023/01/03 02:30:35;;;;;;;13.07;8.98;;;;;;;16.21;57.19;98030.59;5116559;27;20066;-26
2023/01/03 02:33:04;;;;;;;15.30;8.93;;;;;;;16.20;57.10;98026.31;5116137;28;20027;-27
2023/01/03 02:35:36;;;;;;;14.90;9.25;;;;;;;16.16;57.41;98023.66;5116378;28;20579;-26
2023/01/03 02:38:20;;;;;;;15.25;9.23;;;;;;;16.22;57.22;98026.66;5116175;28;20056;-26
2023/01/03 02:40:56;;;;;;;13.43;8.70;;;;;;;16.12;57.58;98020.22;5116170;28;20028;-26
2023/01/03 02:43:37;;;;;;;15.80;9.40;;;;;;;16.13;57.44;98016.31;5115928;28;20054;-28
2023/01/03 02:46:08;;;;;;;15.00;9.40;;;;;;;16.17;57.28;98019.75;5115813;28;20110;-26
2023/01/03 02:48:39;;;;;;;15.05;9.48;;;;;;;16.23;57.02;98011.00;5116024;28;20020;-27
2023/01/03 02:51:19;;;;;;;13.45;9.48;;;;;;;16.21;57.22;98005.97;5115997;28;20015;-26
2023/01/03 02:53:47;;;;;;;12.15;8.52;;;;;;;16.23;57.14;98020.00;5115819;28;20026;-26
2023/01/03 02:56:19;;;;;;;12.63;8.63;;;;;;;16.19;57.37;98013.84;5115723;28;20055;-26
2023/01/03 02:58:48;;;;;;;14.70;9.38;;;;;;;16.23;57.09;98021.97;5115945;27;20046;-26
2023/01/03 03:01:16;;;;;;;16.30;9.25;;;;;;;16.19;57.38;98019.31;5123137;27;20075;-26
2023/01/03 03:03:42;;;;;;;15.48;9.80;;;;;;;16.19;57.29;98019.31;5121549;27;20019;-26
2023/01/03 03:06:18;;;;;;;12.75;8.82;;;;;;;16.16;57.35;98014.69;5123788;27;20027;-26
2023/01/03 03:08:45;;;;;;;13.93;8.80;;;;;;;16.16;57.41;98018.19;5120258;27;20020;-26
2023/01/03 03:14:05;;;;;;;15.50;9.10;;;;;;;16.22;57.29;98023.16;5115807;27;20023;-26
2023/01/03 03:16:48;;;;;;;14.63;9.48;;;;;;;16.17;57.38;98017.00;5115291;28;20020;-26
2023/01/03 03:25:18;;;;;;;15.52;9.23;;;;;;;16.22;57.22;98023.16;5132173;27;20039;-26
2023/01/03 03:30:34;;;;;;;13.32;8.70;;;;;;;16.19;57.47;98022.06;5122990;27;20052;-26
2023/01/03 03:33:04;;;;;;;12.13;8.73;;;;;;;16.20;57.23;98020.84;5119531;27;20468;-26
2023/01/03 03:35:38;;;;;;;13.40;9.48;;;;;;;16.19;57.30;98024.78;5114958;28;20031;-26
2023/01/03 03:38:07;;;;;;;16.08;9.05;;;;;;;16.14;57.53;98017.84;5128778;27;20110;-26
2023/01/03 04:00:20;;;;;;;13.18;9.48;;;;;;;16.19;57.43;98021.28;5114640;28;20031;-26
2023/01/03 04:02:47;;;;;;;12.63;9.20;;;;;;;16.23;57.51;98016.47;5114176;28;20020;-26
2023/01/03 04:05:18;;;;;;;12.32;7.85;;;;;;;16.14;57.58;98011.59;5109785;27;20390;-27
2023/01/03 04:07:44;;;;;;;15.10;8.98;;;;;;;16.17;57.49;98011.53;5122237;27;20026;-26
2023/01/03 04:10:10;;;;;;;12.30;7.93;;;;;;;16.17;57.44;98027.94;5134365;27;20102;-26
2023/01/03 04:12:36;;;;;;;13.32;8.63;;;;;;;16.20;57.45;98022.81;5114836;27;20043;-26
2023/01/03 04:15:02;;;;;;;13.27;8.10;;;;;;;16.12;57.63;98017.50;5096108;28;20051;-26
2023/01/03 04:17:28;;;;;;;13.68;8.65;;;;;;;16.14;57.55;98014.34;5114493;28;20024;-25
2023/01/03 04:19:54;;;;;;;13.98;8.60;;;;;;;16.15;57.56;98013.91;5114370;28;20388;-26
2023/01/03 04:22:19;;;;;;;14.25;9.00;;;;;;;16.16;57.74;98020.16;5114166;28;20084;-26
2023/01/03 04:24:44;;;;;;;13.18;8.18;;;;;;;16.14;57.54;98019.81;5114167;28;20147;-26
2023/01/03 04:27:10;;;;;;;12.23;8.40;;;;;;;16.16;57.70;98022.91;5118492;27;20027;-26
2023/01/03 04:29:35;;;;;;;12.48;8.35;;;;;;;16.23;57.38;98019.22;5114249;28;20038;-26
2023/01/03 04:32:01;;;;;;;13.05;9.02;;;;;;;16.23;57.62;98021.97;5114341;28;20476;-26
2023/01/03 04:34:26;;;;;;;12.85;8.52;;;;;;;16.19;57.44;98018.56;5114436;28;20421;-26
2023/01/03 04:36:52;;;;;;;14.63;8.48;;;;;;;16.19;57.58;98018.56;5127763;27;20019;-26
2023/01/03 04:39:17;;;;;;;13.18;8.30;;;;;;;16.24;57.49;98031.72;5128044;27;20019;-26
2023/01/03 04:41:46;;;;;;;14.88;8.02;;;;;;;16.08;57.91;98029.69;5120856;27;20026;-25
2023/01/03 05:01:02;;;;;;;13.02;8.15;;;;;;;16.10;57.98;98022.63;5113594;28;20059;-26
2023/01/03 05:03:29;;;;;;;12.38;8.10;;;;;;;16.12;57.75;98024.94;5113671;28;20102;-26
2023/01/03 05:06:12;;;;;;;13.20;8.13;;;;;;;16.19;57.86;98030.28;5113822;28;20498;-26
2023/01/03 05:08:38;;;;;;;13.75;8.25;;;;;;;16.12;57.83;98025.72;5113826;28;20027;-26
2023/01/03 05:11:04;;;;;;;12.55;7.55;;;;;;;16.11;57.90;98029.63;5113427;28;20114;-26
2023/01/03 05:13:31;;;;;;;14.73;8.02;;;;;;;16.16;57.90;98031.88;5118967;28;20081;-26
2023/01/03 05:16:04;;;;;;;11.05;7.22;;;;;;;16.20;57.84;98031.00;5114034;28;20543;-26
2023/01/03 05:18:30;;;;;;;9.73;7.32;;;;;;;16.15;57.77;98024.09;5127283;28;20023;-25
2023/01/03 05:26:23;;;;;;;9.75;6.70;;;;;;;16.24;57.77;98031.72;5128290;28;20103;-25
2023/01/03 05:28:52;;;;;;;11.43;7.30;;;;;;;16.14;57.89;98039.75;5126536;28;20452;-27
2023/01/03 05:31:19;;;;;;;10.35;7.10;;;;;;;16.13;57.82;98038.19;5128784;28;20019;-26
2023/01/03 05:33:44;;;;;;;9.10;6.82;;;;;;;16.08;58.01;98038.69;5133907;28;20499;-26
2023/01/03 05:36:10;;;;;;;10.32;7.10;;;;;;;16.20;57.67;98042.72;5134013;28;20058;-26
2023/01/03 05:55:49;;;;;;;16.20;8.35;;;;;;;16.21;57.39;98054.47;5119653;27;20564;-26
2023/01/03 05:58:14;;;;;;;13.75;6.97;;;;;;;16.19;57.39;98067.81;5137434;27;20071;-26
2023/01/03 06:00:40;;;;;;;12.25;7.55;;;;;;;16.17;57.52;98060.81;5120854;27;20447;-26
2023/01/03 06:03:06;;;;;;;10.45;6.63;;;;;;;16.16;57.46;98062.00;5117207;28;20016;-26
2023/01/03 06:05:31;;;;;;;9.50;6.82;;;;;;;16.10;57.64;98060.94;5116892;28;20106;-25
2023/01/03 06:08:00;;;;;;;10.45;7.40;;;;;;;16.11;57.76;98073.44;5117025;28;20012;-26
2023/01/03 06:10:26;;;;;;;9.52;6.75;;;;;;;16.11;57.67;98067.19;5116602;28;20055;-26
2023/01/03 06:12:51;;;;;;;10.23;6.15;;;;;;;16.11;57.65;98073.44;5116834;28;20011;-25
2023/01/03 06:15:17;;;;;;;11.63;6.75;;;;;;;16.09;57.78;98077.78;5116588;28;20047;-25
2023/01/03 06:17:56;;;;;;;9.93;6.38;;;;;;;16.12;57.63;98080.44;5126374;27;20102;-25
2023/01/03 06:20:22;;;;;;;11.57;6.45;;;;;;;16.13;57.69;98084.72;5119892;27;20024;-26
2023/01/03 06:22:48;;;;;;;9.48;6.38;;;;;;;16.17;57.40;98088.19;5109760;27;20031;-25
2023/01/03 06:25:14;;;;;;;10.15;6.47;;;;;;;16.19;57.25;98095.97;5123304;27;20019;-26
2023/01/03 06:27:39;;;;;;;8.85;6.05;;;;;;;16.15;57.42;98090.56;5137135;27;20023;-26
2023/01/03 06:30:05;;;;;;;9.10;6.18;;;;;;;16.15;57.47;98085.09;5118486;27;20102;-26
2023/01/03 06:32:31;;;;;;;9.77;6.03;;;;;;;16.16;57.53;98080.38;5128177;27;20031;-27
2023/01/03 06:34:56;;;;;;;8.45;5.78;;;;;;;16.11;57.54;98078.91;5118206;27;20103;-26
2023/01/03 06:37:22;;;;;;;8.35;6.05;;;;;;;16.21;57.38;98077.13;5116558;28;20024;-26
2023/01/03 06:39:47;;;;;;;7.60;5.35;;;;;;;16.20;57.41;98074.81;5134732;27;20026;-26
2023/01/03 06:53:14;;;;;;;10.15;5.68;;;;;;;16.19;57.31;98085.00;5116098;28;20030;-26
2023/01/03 06:55:41;;;;;;;9.27;5.72;;;;;;;16.23;57.34;98084.91;5118491;27;20486;-26
2023/01/03 06:58:07;;;;;;;8.68;5.55;;;;;;;16.21;57.39;98082.59;5136655;27;20015;-25
2023/01/03 07:00:37;;;;;;;7.15;5.47;;;;;;;16.12;57.62;98088.66;5136464;27;20046;-26
2023/01/03 07:03:03;;;;;;;10.73;5.70;;;;;;;16.06;57.89;98086.84;5136561;27;20019;-25
2023/01/03 07:05:28;;;;;;;12.43;5.53;;;;;;;16.16;57.45;98086.63;5132753;27;20456;-27
2023/01/03 07:07:55;;;;;;;9.73;5.60;;;;;;;16.21;57.54;98087.31;5115803;28;20083;-26
2023/01/03 07:10:21;;;;;;;7.32;5.28;;;;;;;16.20;57.57;98097.47;5131791;27;20039;-26
2023/01/03 07:15:30;;;;;;;8.75;5.32;;;;;;;16.10;57.82;98096.50;5115604;28;20038;-26
2023/01/03 07:17:56;;;;;;;8.77;5.80;;;;;;;16.08;57.74;98087.19;5115525;27;20024;-26
2023/01/03 07:20:21;;;;;;;8.90;5.50;;;;;;;16.10;57.77;98093.78;5120665;27;20031;-28
2023/01/03 07:22:48;;;;;;;9.60;5.82;;;;;;;16.14;57.70;98091.75;5123669;27;20020;-26
2023/01/03 07:25:53;;;;;;;10.55;6.13;;;;;;;16.17;57.48;98081.94;5115499;28;20059;-26
2023/01/03 07:28:18;;;;;;;13.45;6.75;;;;;;;16.08;57.83;98089.91;5128638;27;20022;-26
2023/01/03 07:30:45;;;;;;;11.98;7.28;;;;;;;16.05;57.89;98083.34;5118747;27;20015;-26
2023/01/03 07:33:13;;;;;;;13.25;7.05;;;;;;;16.14;57.55;98078.06;5115696;27;20068;-26
2023/01/03 07:35:38;;;;;;;11.40;6.45;;;;;;;16.04;57.95;98079.06;5113118;28;20379;-26
2023/01/03 07:38:05;;;;;;;12.70;7.53;;;;;;;16.05;57.84;98088.81;5115176;27;20019;-26
2023/01/03 07:40:31;;;;;;;11.70;7.22;;;;;;;16.06;57.94;98075.91;5124110;27;20084;-25
2023/01/03 07:45:42;;;;;;;11.38;7.38;;;;;;;16.09;57.86;98081.28;5133086;27;20084;-26
2023/01/03 07:48:08;;;;;;;12.00;7.45;;;;;;;16.12;57.85;98085.16;5130763;27;20497;-26
2023/01/03 07:50:35;;;;;;;12.95;7.72;;;;;;;16.12;57.71;98093.34;5112502;28;20027;-26
2023/01/03 07:53:01;;;;;;;12.57;7.07;;;;;;;16.12;57.68;98091.41;5112663;28;20027;-26
2023/01/03 07:55:27;;;;;;;12.45;8.20;;;;;;;16.02;58.01;98102.56;5112436;28;20030;-27
2023/01/03 07:57:54;;;;;;;12.65;7.63;;;;;;;16.14;57.84;98096.44;5112119;28;20419;-26
2023/01/03 08:00:20;;;;;;;10.23;7.05;;;;;;;16.05;57.90;98091.56;5112128;28;20015;-26
2023/01/03 08:02:45;;;;;;;13.63;7.78;;;;;;;16.07;57.96;98097.34;5112428;28;20027;-26
2023/01/03 08:05:12;;;;;;;11.20;7.20;;;;;;;16.07;58.01;98096.59;5112551;28;20203;-26
2023/01/03 08:07:37;;;;;;;13.25;7.45;;;;;;;16.12;57.84;98090.63;5132498;27;20018;-26
2023/01/03 08:15:31;;;;;;;12.00;7.82;;;;;;;16.10;57.92;98109.44;5112324;28;20042;-26
2023/01/03 08:17:57;;;;;;;13.48;8.20;;;;;;;16.04;58.16;98111.13;5113651;27;20015;-26
2023/01/03 08:20:22;;;;;;;10.15;7.50;;;;;;;16.01;58.20;98101.78;5111879;28;20149;-26
2023/01/03 08:22:47;;;;;;;11.75;7.65;;;;;;;16.04;58.29;98117.38;5117416;27;20093;-26
2023/01/03 08:25:13;;;;;;;12.38;7.25;;;;;;;16.04;58.23;98116.59;5112350;28;20084;-27
2023/01/03 08:27:38;;;;;;;12.98;7.15;;;;;;;16.06;58.11;98125.94;5111830;28;20023;-26
2023/01/03 08:30:05;;;;;;;12.68;7.88;;;;;;;15.96;58.52;98113.22;5111486;28;20050;-26
2023/01/03 08:32:32;;;;;;;12.32;6.50;;;;;;;16.04;58.10;98117.38;5111633;28;20369;-26
2023/01/03 08:34:58;;;;;;;11.18;7.10;;;;;;;16.09;58.08;98114.13;5111926;28;20375;-26
2023/01/03 08:37:26;;;;;;;11.60;7.53;;;;;;;16.06;58.17;98120.47;5111718;28;20488;-26
2023/01/03 08:39:58;;;;;;;12.10;7.25;;;;;;;16.18;57.89;98127.28;5111641;28;20102;-25
2023/01/03 08:42:24;;;;;;;12.90;7.63;;;;;;;16.11;58.04;98128.16;5109308;28;20466;-26
2023/01/03 08:44:56;;;;;;;12.18;7.20;;;;;;;16.12;57.95;98124.25;5114218;28;20028;-26
2023/01/03 08:47:22;;;;;;;10.10;6.80;;;;;;;16.14;57.82;98126.56;5114334;27;20038;-27
2023/01/03 08:49:47;;;;;;;9.65;6.80;;;;;;;16.02;58.34;98129.94;5114344;27;20036;-25
2023/01/03 08:52:13;;;;;;;10.70;6.60;;;;;;;16.17;57.98;98131.97;5111562;28;20102;-25
2023/01/03 08:54:38;;;;;;;11.20;6.72;;;;;;;16.00;58.49;98129.56;5111211;28;20455;-26
2023/01/03 08:57:04;;;;;;;11.60;6.10;;;;;;;16.10;58.20;98143.03;5111793;28;20043;-26
2023/01/03 08:59:30;;;;;;;10.02;6.22;;;;;;;16.11;58.15;98133.63;5111642;28;20027;-26
2023/01/03 09:01:59;;;;;;;10.77;6.03;;;;;;;16.04;58.26;98138.50;5093319;28;20043;-26
2023/01/03 09:04:24;;;;;;;10.55;6.18;;;;;;;16.05;58.22;98140.81;5111613;28;20019;-26
2023/01/03 09:06:50;;;;;;;9.02;6.05;;;;;;;16.13;57.98;98153.16;5111376;28;20034;-26
2023/01/03 09:09:15;;;;;;;9.95;6.80;;;;;;;16.09;58.12;98149.72;5111457;28;20059;-25
2023/01/03 09:11:41;;;;;;;9.52;6.85;;;;;;;16.09;58.26;98144.22;5111122;28;20050;-26
2023/01/03 09:14:06;;;;;;;8.73;6.22;;;;;;;16.12;57.97;98154.34;5111478;28;20040;-26
2023/01/03 09:16:31;;;;;;;9.35;6.30;;;;;;;16.06;58.36;98158.78;5120798;28;20084;-26
2023/01/03 09:18:57;;;;;;;12.35;6.63;;;;;;;16.13;57.97;98147.69;5111206;28;20410;-26
2023/01/03 09:21:23;;;;;;;12.10;6.53;;;;;;;16.09;58.16;98151.66;5111486;28;20069;-26
2023/01/03 09:23:50;;;;;;;11.35;6.80;;;;;;;16.21;57.86;98155.75;5111682;28;20020;-27
2023/01/03 09:26:16;;;;;;;15.20;8.30;;;;;;;16.17;57.96;98156.59;5113612;28;20081;-26
2023/01/03 09:28:41;;;;;;;13.18;9.25;;;;;;;16.19;58.11;98149.94;5111979;28;20023;-25
2023/01/03 09:31:07;;;;;;;20.80;12.27;;;;;;;15.36;60.64;98149.84;5098435;28;20482;-25
2023/01/03 09:33:33;;;;;;;21.60;13.63;;;;;;;15.29;60.96;98148.00;5136714;27;20023;-26
2023/01/03 09:35:58;;;;;;;28.70;16.85;;;;;;;15.63;59.98;98147.06;5138011;27;20025;-26
2023/01/03 09:38:25;;;;;;;25.15;15.75;;;;;;;15.89;59.04;98143.47;5117158;27;20106;-26
2023/01/03 09:41:05;;;;;;;21.42;14.15;;;;;;;15.97;58.74;98139.38;5117435;27;20080;-26
2023/01/03 09:43:39;;;;;;;23.95;14.85;;;;;;;15.96;58.83;98137.84;5116786;28;20019;-26
2023/01/03 09:46:11;;;;;;;20.73;13.73;;;;;;;15.98;58.74;98140.16;5117232;28;20069;-26
2023/01/03 09:48:39;;;;;;;19.42;13.25;;;;;;;15.96;58.85;98142.53;5127424;27;20079;-26
2023/01/03 10:03:42;;;;;;;18.40;12.80;;;;;;;16.00;58.55;98132.31;5124016;27;20080;-26
2023/01/03 10:04:57;;;;;;;16.33;11.25;;;;;;;16.03;58.58;98137.72;5116799;28;20034;-26
2023/01/03 10:07:41;;;;;;;19.25;10.95;;;;;;;16.03;58.45;98143.19;5116682;28;20470;-26
2023/01/03 10:10:07;;;;;;;17.25;10.07;;;;;;;16.05;58.50;98140.81;5098255;28;20032;-25
2023/01/03 10:12:45;;;;;;;14.82;9.40;;;;;;;16.02;58.61;98127.97;5115676;27;20371;-26
